sensor_id;sensor_type;location;lat;lon;timestamp;pressure;altitude;pressure_sealevel;temperature;humidity
61961;BME280;47923;42.506;24.192;2023-06-22T00:01:01;95900.66;;;15.75;80.04
61961;BME280;47923;42.506;24.192;2023-06-22T00:03:27;95617.94;;;13.84;78.95
61961;BME280;47923;42.506;24.192;2023-06-22T00:05:53;95906.84;;;15.69;79.96
61961;BME280;47923;42.506;24.192;2023-06-22T00:08:19;95808.38;;;15.01;80.23
61961;BME280;47923;42.506;24.192;2023-06-22T00:10:46;95560.16;;;13.43;78.37
61961;BME280;47923;42.506;24.192;2023-06-22T00:13:13;95908.41;;;15.70;77.80
61961;BME280;47923;42.506;24.192;2023-06-22T00:15:40;95623.75;;;13.82;79.92
61961;BME280;47923;42.506;24.192;2023-06-22T00:18:07;95930.63;;;15.75;80.20
61961;BME280;47923;42.506;24.192;2023-06-22T00:20:34;95844.66;;;15.19;79.73
61961;BME280;47923;42.506;24.192;2023-06-22T00:23:03;95786.13;;;14.85;80.55
61961;BME280;47923;42.506;24.192;2023-06-22T00:25:35;95567.19;;;13.14;80.84
61961;BME280;47923;42.506;24.192;2023-06-22T00:28:01;95917.34;;;15.70;79.44
61961;BME280;47923;42.506;24.192;2023-06-22T00:30:27;95608.50;;;13.71;80.71
61961;BME280;47923;42.506;24.192;2023-06-22T00:32:53;95919.28;;;15.66;80.64
61961;BME280;47923;42.506;24.192;2023-06-22T00:35:19;95898.06;;;15.38;81.64
61961;BME280;47923;42.506;24.192;2023-06-22T00:37:45;95911.34;;;15.43;82.24
61961;BME280;47923;42.506;24.192;2023-06-22T00:40:11;95597.97;;;13.25;82.40
61961;BME280;47923;42.506;24.192;2023-06-22T00:42:40;95654.13;;;13.58;83.46
61961;BME280;47923;42.506;24.192;2023-06-22T00:45:07;95897.84;;;15.10;83.48
61961;BME280;47923;42.506;24.192;2023-06-22T00:47:34;95785.78;;;14.46;81.48
61961;BME280;47923;42.506;24.192;2023-06-22T00:50:02;95909.72;;;15.35;82.93
61961;BME280;47923;42.506;24.192;2023-06-22T00:52:29;95867.41;;;14.97;82.25
61961;BME280;47923;42.506;24.192;2023-06-22T00:54:59;95592.94;;;13.27;81.90
61961;BME280;47923;42.506;24.192;2023-06-22T00:57:27;95897.88;;;15.13;82.28
61961;BME280;47923;42.506;24.192;2023-06-22T00:59:53;95925.16;;;15.20;82.27
61961;BME280;47923;42.506;24.192;2023-06-22T01:02:19;95404.28;;;11.84;81.28
61961;BME280;47923;42.506;24.192;2023-06-22T01:04:45;95893.50;;;15.02;82.33
61961;BME280;47923;42.506;24.192;2023-06-22T01:09:49;95541.81;;;12.62;83.40
61961;BME280;47923;42.506;24.192;2023-06-22T01:12:18;95942.19;;;15.14;83.73
61961;BME280;47923;42.506;24.192;2023-06-22T01:15:02;95534.03;;;12.57;83.41
61961;BME280;47923;42.506;24.192;2023-06-22T01:17:31;95906.72;;;15.03;83.65
61961;BME280;47923;42.506;24.192;2023-06-22T01:19:59;95902.25;;;14.81;82.22
61961;BME280;47923;42.506;24.192;2023-06-22T01:22:31;95487.53;;;12.21;82.81
61961;BME280;47923;42.506;24.192;2023-06-22T01:25:09;95908.59;;;14.96;82.59
61961;BME280;47923;42.506;24.192;2023-06-22T01:27:53;95903.97;;;15.00;83.37
61961;BME280;47923;42.506;24.192;2023-06-22T01:30:22;95897.78;;;15.03;84.19
61961;BME280;47923;42.506;24.192;2023-06-22T01:32:51;95427.63;;;11.70;83.10
61961;BME280;47923;42.506;24.192;2023-06-22T01:35:18;95500.59;;;12.45;83.06
61961;BME280;47923;42.506;24.192;2023-06-22T01:37:46;95790.72;;;14.36;83.77
61961;BME280;47923;42.506;24.192;2023-06-22T01:40:13;95837.00;;;14.44;83.71
61961;BME280;47923;42.506;24.192;2023-06-22T01:42:39;95897.78;;;15.03;83.23
61961;BME280;47923;42.506;24.192;2023-06-22T01:45:05;95626.16;;;13.17;83.46
61961;BME280;47923;42.506;24.192;2023-06-22T01:47:32;95422.56;;;11.42;84.22
61961;BME280;47923;42.506;24.192;2023-06-22T01:49:59;95932.16;;;14.77;84.16
61961;BME280;47923;42.506;24.192;2023-06-22T01:52:24;95667.47;;;13.07;83.78
61961;BME280;47923;42.506;24.192;2023-06-22T01:54:50;95892.84;;;14.75;82.52
61961;BME280;47923;42.506;24.192;2023-06-22T01:57:16;95183.56;;;10.14;80.61
61961;BME280;47923;42.506;24.192;2023-06-22T02:02:19;95141.78;;;9.81;82.54
61961;BME280;47923;42.506;24.192;2023-06-22T02:05:12;95894.81;;;14.74;84.51
61961;BME280;47923;42.506;24.192;2023-06-22T02:07:46;95778.16;;;13.88;85.09
61961;BME280;47923;42.506;24.192;2023-06-22T02:10:14;95805.38;;;13.91;85.16
61961;BME280;47923;42.506;24.192;2023-06-22T02:12:42;95524.34;;;11.99;85.26
61961;BME280;47923;42.506;24.192;2023-06-22T02:15:10;95915.63;;;14.59;85.72
61961;BME280;47923;42.506;24.192;2023-06-22T02:17:36;95319.25;;;10.79;85.23
61961;BME280;47923;42.506;24.192;2023-06-22T02:20:03;95882.81;;;14.45;85.51
61961;BME280;47923;42.506;24.192;2023-06-22T02:22:33;95900.47;;;14.58;86.10
61961;BME280;47923;42.506;24.192;2023-06-22T02:24:59;95914.06;;;14.58;85.11
61961;BME280;47923;42.506;24.192;2023-06-22T02:27:25;95890.91;;;14.38;83.81
61961;BME280;47923;42.506;24.192;2023-06-22T02:29:51;95571.84;;;11.93;83.14
61961;BME280;47923;42.506;24.192;2023-06-22T02:32:16;95912.91;;;14.59;83.45
61961;BME280;47923;42.506;24.192;2023-06-22T02:34:43;95523.59;;;11.99;82.70
61961;BME280;47923;42.506;24.192;2023-06-22T02:37:13;95915.69;;;14.67;83.44
61961;BME280;47923;42.506;24.192;2023-06-22T02:39:40;95925.41;;;14.68;84.60
61961;BME280;47923;42.506;24.192;2023-06-22T02:42:06;95521.78;;;12.10;85.07
61961;BME280;47923;42.506;24.192;2023-06-22T02:44:31;95923.16;;;14.73;85.74
61961;BME280;47923;42.506;24.192;2023-06-22T02:46:57;95547.50;;;12.23;84.92
61961;BME280;47923;42.506;24.192;2023-06-22T02:49:23;95781.63;;;13.81;85.23
61961;BME280;47923;42.506;24.192;2023-06-22T02:51:49;95913.81;;;14.71;84.07
61961;BME280;47923;42.506;24.192;2023-06-22T02:54:15;95909.19;;;14.75;84.75
61961;BME280;47923;42.506;24.192;2023-06-22T02:56:42;95881.50;;;14.62;84.37
61961;BME280;47923;42.506;24.192;2023-06-22T02:59:09;95908.00;;;14.76;84.81
61961;BME280;47923;42.506;24.192;2023-06-22T03:01:36;95903.00;;;14.78;83.86
61961;BME280;47923;42.506;24.192;2023-06-22T03:04:08;95903.09;;;14.88;84.02
61961;BME280;47923;42.506;24.192;2023-06-22T03:06:34;95374.25;;;11.40;83.71
61961;BME280;47923;42.506;24.192;2023-06-22T03:09:01;95601.63;;;12.76;84.16
61961;BME280;47923;42.506;24.192;2023-06-22T03:11:29;95912.88;;;14.93;84.38
61961;BME280;47923;42.506;24.192;2023-06-22T03:13:55;95912.81;;;14.89;85.13
61961;BME280;47923;42.506;24.192;2023-06-22T03:16:20;95474.31;;;11.89;84.65
61961;BME280;47923;42.506;24.192;2023-06-22T03:18:46;95910.44;;;14.84;86.02
61961;BME280;47923;42.506;24.192;2023-06-22T03:21:12;95453.63;;;11.78;85.60
61961;BME280;47923;42.506;24.192;2023-06-22T03:23:38;95376.59;;;11.42;85.98
61961;BME280;47923;42.506;24.192;2023-06-22T03:26:03;95907.88;;;14.99;86.67
61961;BME280;47923;42.506;24.192;2023-06-22T03:28:29;95501.47;;;12.23;86.02
61961;BME280;47923;42.506;24.192;2023-06-22T03:30:57;95552.09;;;12.79;85.71
61961;BME280;47923;42.506;24.192;2023-06-22T03:33:23;95506.63;;;13.40;84.80
61961;BME280;47923;42.506;24.192;2023-06-22T03:35:49;95916.22;;;18.19;74.43
61961;BME280;47923;42.506;24.192;2023-06-22T03:38:16;95871.56;;;19.58;66.23
61961;BME280;47923;42.506;24.192;2023-06-22T03:40:41;95903.16;;;21.26;60.44
61961;BME280;47923;42.506;24.192;2023-06-22T03:43:07;95859.09;;;22.40;55.10
61961;BME280;47923;42.506;24.192;2023-06-22T03:45:33;95926.66;;;23.69;50.18
61961;BME280;47923;42.506;24.192;2023-06-22T03:47:59;95591.56;;;21.96;47.04
61961;BME280;47923;42.506;24.192;2023-06-22T03:50:25;95904.44;;;24.76;45.88
61961;BME280;47923;42.506;24.192;2023-06-22T03:52:51;95929.66;;;24.91;45.95
61961;BME280;47923;42.506;24.192;2023-06-22T03:55:19;95929.53;;;25.83;43.55
61961;BME280;47923;42.506;24.192;2023-06-22T03:57:45;95696.50;;;24.63;42.68
61961;BME280;47923;42.506;24.192;2023-06-22T04:00:11;95599.06;;;24.62;41.48
61961;BME280;47923;42.506;24.192;2023-06-22T04:02:37;95617.56;;;24.74;40.79
61961;BME280;47923;42.506;24.192;2023-06-22T04:05:02;95595.91;;;25.29;39.92
61961;BME280;47923;42.506;24.192;2023-06-22T04:07:28;95837.09;;;27.40;38.69
61961;BME280;47923;42.506;24.192;2023-06-22T04:09:54;95804.75;;;27.83;37.90
61961;BME280;47923;42.506;24.192;2023-06-22T04:12:19;95924.06;;;29.11;36.30
61961;BME280;47923;42.506;24.192;2023-06-22T04:14:45;95586.81;;;26.99;35.58
61961;BME280;47923;42.506;24.192;2023-06-22T04:17:11;95925.81;;;29.75;35.32
61961;BME280;47923;42.506;24.192;2023-06-22T04:19:39;95939.88;;;30.67;33.39
61961;BME280;47923;42.506;24.192;2023-06-22T04:22:05;95947.28;;;31.44;31.91
61961;BME280;47923;42.506;24.192;2023-06-22T04:24:33;95600.63;;;29.79;31.70
61961;BME280;47923;42.506;24.192;2023-06-22T04:26:58;95915.44;;;32.98;29.47
61961;BME280;47923;42.506;24.192;2023-06-22T04:29:31;95924.91;;;34.18;27.93
61961;BME280;47923;42.506;24.192;2023-06-22T04:31:57;95875.84;;;34.68;26.42
61961;BME280;47923;42.506;24.192;2023-06-22T04:34:29;95878.91;;;34.53;26.80
61961;BME280;47923;42.506;24.192;2023-06-22T04:36:55;95577.34;;;31.80;27.53
61961;BME280;47923;42.506;24.192;2023-06-22T04:39:21;95694.75;;;32.43;28.31
61961;BME280;47923;42.506;24.192;2023-06-22T04:41:47;95918.16;;;34.53;27.28
61961;BME280;47923;42.506;24.192;2023-06-22T04:44:17;95893.41;;;34.57;27.34
61961;BME280;47923;42.506;24.192;2023-06-22T04:46:54;95913.66;;;35.06;26.30
61961;BME280;47923;42.506;24.192;2023-06-22T04:49:26;95912.84;;;35.78;25.51
61961;BME280;47923;42.506;24.192;2023-06-22T04:51:57;95907.72;;;35.93;26.07
61961;BME280;47923;42.506;24.192;2023-06-22T04:54:23;95909.31;;;36.47;25.29
61961;BME280;47923;42.506;24.192;2023-06-22T04:56:49;95599.25;;;36.00;23.08
61961;BME280;47923;42.506;24.192;2023-06-22T04:59:25;95904.41;;;38.71;22.37
61961;BME280;47923;42.506;24.192;2023-06-22T05:01:54;95612.16;;;35.78;22.60
61961;BME280;47923;42.506;24.192;2023-06-22T05:04:20;95670.31;;;35.94;24.50
61961;BME280;47923;42.506;24.192;2023-06-22T05:06:45;95901.06;;;36.55;24.55
61961;BME280;47923;42.506;24.192;2023-06-22T05:09:11;95893.69;;;36.93;24.63
61961;BME280;47923;42.506;24.192;2023-06-22T05:11:37;95412.34;;;34.33;24.12
61961;BME280;47923;42.506;24.192;2023-06-22T05:14:03;95662.81;;;37.17;22.34
61961;BME280;47923;42.506;24.192;2023-06-22T05:16:29;95634.03;;;36.26;23.03
61961;BME280;47923;42.506;24.192;2023-06-22T05:18:55;95898.63;;;37.17;23.85
61961;BME280;47923;42.506;24.192;2023-06-22T05:21:26;95805.41;;;37.69;23.20
61961;BME280;47923;42.506;24.192;2023-06-22T05:23:54;95877.09;;;37.98;22.78
61961;BME280;47923;42.506;24.192;2023-06-22T05:26:21;95594.72;;;36.51;23.05
61961;BME280;47923;42.506;24.192;2023-06-22T05:28:47;95900.72;;;39.27;22.67
61961;BME280;47923;42.506;24.192;2023-06-22T05:31:16;95707.03;;;38.73;21.60
61961;BME280;47923;42.506;24.192;2023-06-22T05:33:43;95843.97;;;39.84;20.98
61961;BME280;47923;42.506;24.192;2023-06-22T05:36:09;95903.53;;;40.39;20.73
61961;BME280;47923;42.506;24.192;2023-06-22T05:38:36;95918.13;;;40.29;21.58
61961;BME280;47923;42.506;24.192;2023-06-22T05:41:02;95908.03;;;40.21;21.80
61961;BME280;47923;42.506;24.192;2023-06-22T05:43:28;95906.56;;;40.54;21.07
61961;BME280;47923;42.506;24.192;2023-06-22T05:45:54;95895.28;;;40.41;21.43
61961;BME280;47923;42.506;24.192;2023-06-22T05:48:19;95709.75;;;38.47;21.79
61961;BME280;47923;42.506;24.192;2023-06-22T05:50:45;95788.47;;;38.12;23.26
61961;BME280;47923;42.506;24.192;2023-06-22T05:53:11;95910.09;;;38.28;24.00
61961;BME280;47923;42.506;24.192;2023-06-22T05:55:37;95607.41;;;36.58;24.11
61961;BME280;47923;42.506;24.192;2023-06-22T05:58:02;95893.28;;;36.25;25.62
61961;BME280;47923;42.506;24.192;2023-06-22T06:00:31;95908.53;;;36.93;26.20
61961;BME280;47923;42.506;24.192;2023-06-22T06:02:57;95710.63;;;36.74;24.12
61961;BME280;47923;42.506;24.192;2023-06-22T06:05:29;95906.63;;;38.16;23.41
61961;BME280;47923;42.506;24.192;2023-06-22T06:07:55;95673.50;;;36.15;24.43
61961;BME280;47923;42.506;24.192;2023-06-22T06:10:21;95906.16;;;38.12;24.04
61961;BME280;47923;42.506;24.192;2023-06-22T06:12:47;95897.97;;;38.89;23.92
61961;BME280;47923;42.506;24.192;2023-06-22T06:15:14;95883.75;;;39.86;22.30
61961;BME280;47923;42.506;24.192;2023-06-22T06:17:50;95873.88;;;39.20;22.37
61961;BME280;47923;42.506;24.192;2023-06-22T06:20:18;95877.78;;;39.63;21.94
61961;BME280;47923;42.506;24.192;2023-06-22T06:22:44;95879.81;;;40.55;21.60
61961;BME280;47923;42.506;24.192;2023-06-22T06:25:10;95770.50;;;40.52;20.78
61961;BME280;47923;42.506;24.192;2023-06-22T06:27:42;95716.28;;;41.75;18.60
61961;BME280;47923;42.506;24.192;2023-06-22T06:30:08;95735.88;;;43.85;17.34
61961;BME280;47923;42.506;24.192;2023-06-22T06:32:34;95562.03;;;43.98;16.24
61961;BME280;47923;42.506;24.192;2023-06-22T06:35:00;95891.25;;;47.05;15.60
61961;BME280;47923;42.506;24.192;2023-06-22T06:37:25;95773.63;;;47.18;14.70
61961;BME280;47923;42.506;24.192;2023-06-22T06:39:51;95738.31;;;47.33;14.44
61961;BME280;47923;42.506;24.192;2023-06-22T06:42:17;95791.38;;;48.31;14.82
61961;BME280;47923;42.506;24.192;2023-06-22T06:44:45;95890.22;;;47.93;14.48
61961;BME280;47923;42.506;24.192;2023-06-22T06:47:11;95357.44;;;43.18;16.13
61961;BME280;47923;42.506;24.192;2023-06-22T06:49:36;95914.34;;;47.17;14.98
61961;BME280;47923;42.506;24.192;2023-06-22T06:52:02;95554.03;;;45.41;16.18
61961;BME280;47923;42.506;24.192;2023-06-22T06:54:28;95512.81;;;44.73;15.85
61961;BME280;47923;42.506;24.192;2023-06-22T06:56:54;95889.25;;;49.16;14.18
61961;BME280;47923;42.506;24.192;2023-06-22T06:59:20;95770.03;;;48.63;14.82
61961;BME280;47923;42.506;24.192;2023-06-22T07:01:46;95632.59;;;47.74;13.91
61961;BME280;47923;42.506;24.192;2023-06-22T07:04:14;95578.72;;;46.00;14.50
61961;BME280;47923;42.506;24.192;2023-06-22T07:06:39;95882.16;;;50.44;13.48
61961;BME280;47923;42.506;24.192;2023-06-22T07:09:05;95366.03;;;46.28;13.45
61961;BME280;47923;42.506;24.192;2023-06-22T07:11:31;95834.94;;;48.20;13.97
61961;BME280;47923;42.506;24.192;2023-06-22T07:13:56;95854.41;;;50.15;13.29
61961;BME280;47923;42.506;24.192;2023-06-22T07:16:22;95881.81;;;50.82;11.83
61961;BME280;47923;42.506;24.192;2023-06-22T07:18:52;95818.75;;;50.75;11.41
61961;BME280;47923;42.506;24.192;2023-06-22T07:21:18;95722.66;;;51.01;11.17
61961;BME280;47923;42.506;24.192;2023-06-22T07:23:44;95886.66;;;51.25;11.37
61961;BME280;47923;42.506;24.192;2023-06-22T07:26:10;95815.16;;;49.44;11.30
61961;BME280;47923;42.506;24.192;2023-06-22T07:28:38;95716.94;;;49.88;11.05
61961;BME280;47923;42.506;24.192;2023-06-22T07:31:06;95816.59;;;50.19;11.26
61961;BME280;47923;42.506;24.192;2023-06-22T07:33:31;95868.00;;;50.36;11.28
61961;BME280;47923;42.506;24.192;2023-06-22T07:35:57;95863.00;;;50.37;11.25
61961;BME280;47923;42.506;24.192;2023-06-22T07:38:23;95718.75;;;50.73;10.30
61961;BME280;47923;42.506;24.192;2023-06-22T07:40:49;95864.16;;;52.54;10.01
61961;BME280;47923;42.506;24.192;2023-06-22T07:43:16;95859.00;;;50.75;10.58
61961;BME280;47923;42.506;24.192;2023-06-22T07:45:48;95857.19;;;50.79;11.10
61961;BME280;47923;42.506;24.192;2023-06-22T07:48:19;95772.03;;;50.29;10.89
61961;BME280;47923;42.506;24.192;2023-06-22T07:50:45;95808.81;;;50.99;10.97
61961;BME280;47923;42.506;24.192;2023-06-22T07:53:11;95865.06;;;50.46;10.98
61961;BME280;47923;42.506;24.192;2023-06-22T07:55:37;95871.75;;;50.72;11.30
61961;BME280;47923;42.506;24.192;2023-06-22T07:58:03;95386.75;;;47.47;10.69
61961;BME280;47923;42.506;24.192;2023-06-22T08:00:29;95404.97;;;47.82;11.47
61961;BME280;47923;42.506;24.192;2023-06-22T08:02:55;95423.38;;;49.19;10.15
61961;BME280;47923;42.506;24.192;2023-06-22T08:05:21;95797.41;;;51.60;9.83
61961;BME280;47923;42.506;24.192;2023-06-22T08:07:47;95841.84;;;51.33;10.94
61961;BME280;47923;42.506;24.192;2023-06-22T08:10:14;95830.25;;;50.30;10.77
61961;BME280;47923;42.506;24.192;2023-06-22T08:12:40;95789.50;;;50.55;10.77
61961;BME280;47923;42.506;24.192;2023-06-22T08:15:06;95613.34;;;49.30;10.70
61961;BME280;47923;42.506;24.192;2023-06-22T08:17:32;95477.09;;;47.90;11.72
61961;BME280;47923;42.506;24.192;2023-06-22T08:19:58;95852.50;;;51.43;10.20
61961;BME280;47923;42.506;24.192;2023-06-22T08:22:25;95861.69;;;50.82;11.24
61961;BME280;47923;42.506;24.192;2023-06-22T08:24:50;95859.91;;;48.77;12.50
61961;BME280;47923;42.506;24.192;2023-06-22T08:27:16;95844.00;;;47.04;13.73
61961;BME280;47923;42.506;24.192;2023-06-22T08:29:44;95629.63;;;46.21;13.16
61961;BME280;47923;42.506;24.192;2023-06-22T08:32:11;95612.03;;;46.61;12.64
61961;BME280;47923;42.506;24.192;2023-06-22T08:34:37;95655.00;;;47.00;12.82
61961;BME280;47923;42.506;24.192;2023-06-22T08:37:10;95623.59;;;46.53;13.26
61961;BME280;47923;42.506;24.192;2023-06-22T08:39:36;95846.56;;;49.11;12.29
61961;BME280;47923;42.506;24.192;2023-06-22T08:42:02;95452.47;;;46.77;12.09
61961;BME280;47923;42.506;24.192;2023-06-22T08:44:28;95638.19;;;47.72;12.57
61961;BME280;47923;42.506;24.192;2023-06-22T08:46:53;95651.16;;;48.74;11.75
61961;BME280;47923;42.506;24.192;2023-06-22T08:49:19;95619.00;;;48.75;11.50
61961;BME280;47923;42.506;24.192;2023-06-22T08:51:45;95848.88;;;51.54;10.82
61961;BME280;47923;42.506;24.192;2023-06-22T08:54:13;95793.09;;;52.21;9.92
61961;BME280;47923;42.506;24.192;2023-06-22T08:56:39;95855.47;;;52.29;10.32
61961;BME280;47923;42.506;24.192;2023-06-22T08:59:04;95836.56;;;52.26;10.34
61961;BME280;47923;42.506;24.192;2023-06-22T09:01:33;95846.13;;;52.93;9.96
61961;BME280;47923;42.506;24.192;2023-06-22T09:03:58;95815.38;;;52.97;9.48
61961;BME280;47923;42.506;24.192;2023-06-22T09:06:25;95586.16;;;50.20;10.42
61961;BME280;47923;42.506;24.192;2023-06-22T09:08:51;95830.56;;;52.98;9.87
61961;BME280;47923;42.506;24.192;2023-06-22T09:11:17;95644.59;;;52.07;10.03
61961;BME280;47923;42.506;24.192;2023-06-22T09:13:42;95830.34;;;53.08;10.20
61961;BME280;47923;42.506;24.192;2023-06-22T09:16:08;95835.88;;;52.13;10.36
61961;BME280;47923;42.506;24.192;2023-06-22T09:18:34;95837.47;;;51.67;9.20
61961;BME280;47923;42.506;24.192;2023-06-22T09:21:01;95840.06;;;53.00;9.29
61961;BME280;47923;42.506;24.192;2023-06-22T09:23:27;95773.75;;;53.28;9.46
61961;BME280;47923;42.506;24.192;2023-06-22T09:25:53;95829.09;;;53.24;9.92
61961;BME280;47923;42.506;24.192;2023-06-22T09:28:18;95823.06;;;52.93;9.84
61961;BME280;47923;42.506;24.192;2023-06-22T09:30:44;95600.78;;;50.59;10.31
61961;BME280;47923;42.506;24.192;2023-06-22T09:33:10;95740.03;;;52.13;9.88
61961;BME280;47923;42.506;24.192;2023-06-22T09:35:36;95589.44;;;51.99;10.10
61961;BME280;47923;42.506;24.192;2023-06-22T09:38:01;95749.91;;;53.14;9.68
61961;BME280;47923;42.506;24.192;2023-06-22T09:40:27;95744.41;;;54.04;8.74
61961;BME280;47923;42.506;24.192;2023-06-22T09:42:53;95739.94;;;54.01;7.50
61961;BME280;47923;42.506;24.192;2023-06-22T09:45:19;95410.72;;;52.52;7.30
61961;BME280;47923;42.506;24.192;2023-06-22T09:47:44;95759.69;;;54.98;7.08
61961;BME280;47923;42.506;24.192;2023-06-22T09:50:10;95824.25;;;55.65;7.21
61961;BME280;47923;42.506;24.192;2023-06-22T09:52:36;95767.50;;;54.18;7.24
61961;BME280;47923;42.506;24.192;2023-06-22T09:55:02;95814.63;;;54.66;7.49
61961;BME280;47923;42.506;24.192;2023-06-22T09:57:29;95820.25;;;53.34;7.90
61961;BME280;47923;42.506;24.192;2023-06-22T09:59:55;95547.97;;;52.72;7.36
61961;BME280;47923;42.506;24.192;2023-06-22T10:02:21;95808.53;;;54.44;7.99
61961;BME280;47923;42.506;24.192;2023-06-22T10:04:48;95580.91;;;52.54;7.51
61961;BME280;47923;42.506;24.192;2023-06-22T10:07:14;95787.69;;;51.06;8.09
61961;BME280;47923;42.506;24.192;2023-06-22T10:09:39;95723.56;;;49.69;10.30
61961;BME280;47923;42.506;24.192;2023-06-22T10:12:05;95802.69;;;51.05;9.28
61961;BME280;47923;42.506;24.192;2023-06-22T10:14:31;95703.28;;;51.62;8.91
61961;BME280;47923;42.506;24.192;2023-06-22T10:16:56;95732.78;;;51.02;9.06
61961;BME280;47923;42.506;24.192;2023-06-22T10:19:22;95637.09;;;47.96;10.57
61961;BME280;47923;42.506;24.192;2023-06-22T10:21:47;95782.63;;;48.09;12.14
61961;BME280;47923;42.506;24.192;2023-06-22T10:24:13;95315.94;;;45.88;10.97
61961;BME280;47923;42.506;24.192;2023-06-22T10:26:39;95263.22;;;46.57;11.15
61961;BME280;47923;42.506;24.192;2023-06-22T10:29:05;95224.22;;;45.16;11.09
61961;BME280;47923;42.506;24.192;2023-06-22T10:31:30;95597.56;;;46.49;12.17
61961;BME280;47923;42.506;24.192;2023-06-22T10:33:56;95561.25;;;45.42;12.35
61961;BME280;47923;42.506;24.192;2023-06-22T10:36:22;95811.25;;;45.82;13.04
61961;BME280;47923;42.506;24.192;2023-06-22T10:38:48;95408.59;;;42.07;14.59
61961;BME280;47923;42.506;24.192;2023-06-22T10:41:14;95711.63;;;42.98;14.69
61961;BME280;47923;42.506;24.192;2023-06-22T10:43:40;95532.88;;;40.82;15.93
61961;BME280;47923;42.506;24.192;2023-06-22T10:46:06;95489.31;;;39.58;16.88
61961;BME280;47923;42.506;24.192;2023-06-22T10:48:32;95713.22;;;41.37;16.54
61961;BME280;47923;42.506;24.192;2023-06-22T10:50:57;95531.63;;;40.34;15.98
61961;BME280;47923;42.506;24.192;2023-06-22T10:53:23;95680.78;;;39.31;18.18
61961;BME280;47923;42.506;24.192;2023-06-22T10:55:52;95795.75;;;39.49;19.85
61961;BME280;47923;42.506;24.192;2023-06-22T10:58:19;95546.03;;;36.32;20.76
61961;BME280;47923;42.506;24.192;2023-06-22T11:00:45;95792.41;;;38.04;21.15
61961;BME280;47923;42.506;24.192;2023-06-22T11:03:11;95742.91;;;37.46;20.77
61961;BME280;47923;42.506;24.192;2023-06-22T11:05:38;95800.97;;;38.17;20.73
61961;BME280;47923;42.506;24.192;2023-06-22T11:08:03;95240.81;;;34.29;21.68
61961;BME280;47923;42.506;24.192;2023-06-22T11:10:29;95361.41;;;35.12;20.83
61961;BME280;47923;42.506;24.192;2023-06-22T11:12:55;95808.28;;;38.07;20.24
61961;BME280;47923;42.506;24.192;2023-06-22T11:15:22;95776.88;;;37.97;20.58
61961;BME280;47923;42.506;24.192;2023-06-22T11:17:48;95498.38;;;35.90;20.78
61961;BME280;47923;42.506;24.192;2023-06-22T11:20:14;95258.63;;;34.38;21.56
61961;BME280;47923;42.506;24.192;2023-06-22T11:22:40;95307.53;;;33.95;22.01
61961;BME280;47923;42.506;24.192;2023-06-22T11:25:07;95732.78;;;36.83;22.17
61961;BME280;47923;42.506;24.192;2023-06-22T11:27:33;95806.56;;;37.30;21.62
61961;BME280;47923;42.506;24.192;2023-06-22T11:29:59;95799.31;;;37.41;21.96
61961;BME280;47923;42.506;24.192;2023-06-22T11:32:24;95796.09;;;37.55;21.40
61961;BME280;47923;42.506;24.192;2023-06-22T11:34:51;95788.94;;;37.00;22.12
61961;BME280;47923;42.506;24.192;2023-06-22T11:37:16;95755.91;;;36.35;22.86
61961;BME280;47923;42.506;24.192;2023-06-22T11:39:42;95260.66;;;32.59;24.32
61961;BME280;47923;42.506;24.192;2023-06-22T11:42:09;95795.44;;;36.12;24.15
61961;BME280;47923;42.506;24.192;2023-06-22T11:44:35;95447.63;;;33.11;25.78
61961;BME280;47923;42.506;24.192;2023-06-22T11:47:01;95781.41;;;35.37;25.28
61961;BME280;47923;42.506;24.192;2023-06-22T11:49:29;95510.19;;;32.91;25.19
61961;BME280;47923;42.506;24.192;2023-06-22T11:51:55;95468.47;;;32.93;24.86
61961;BME280;47923;42.506;24.192;2023-06-22T11:54:21;95793.94;;;35.42;24.04
61961;BME280;47923;42.506;24.192;2023-06-22T11:56:47;95792.34;;;35.63;24.05
61961;BME280;47923;42.506;24.192;2023-06-22T11:59:12;95792.47;;;35.88;23.98
61961;BME280;47923;42.506;24.192;2023-06-22T12:01:38;95790.50;;;35.77;24.27
61961;BME280;47923;42.506;24.192;2023-06-22T12:04:04;95795.50;;;36.01;22.77
61961;BME280;47923;42.506;24.192;2023-06-22T12:06:35;95799.59;;;35.08;23.81
61961;BME280;47923;42.506;24.192;2023-06-22T12:09:04;95791.09;;;34.19;24.83
61961;BME280;47923;42.506;24.192;2023-06-22T12:11:32;95649.31;;;32.54;26.51
61961;BME280;47923;42.506;24.192;2023-06-22T12:13:58;95735.44;;;33.72;26.25
61961;BME280;47923;42.506;24.192;2023-06-22T12:16:27;95481.06;;;32.55;25.44
61961;BME280;47923;42.506;24.192;2023-06-22T12:18:53;95799.84;;;34.77;24.71
61961;BME280;47923;42.506;24.192;2023-06-22T12:21:19;95439.25;;;33.11;24.65
61961;BME280;47923;42.506;24.192;2023-06-22T12:23:45;95667.44;;;34.84;24.38
61961;BME280;47923;42.506;24.192;2023-06-22T12:26:11;95765.75;;;35.64;23.86
61961;BME280;47923;42.506;24.192;2023-06-22T12:28:37;95689.47;;;35.49;24.11
61961;BME280;47923;42.506;24.192;2023-06-22T12:31:03;95477.91;;;34.14;23.95
61961;BME280;47923;42.506;24.192;2023-06-22T12:33:29;95593.75;;;34.72;24.20
61961;BME280;47923;42.506;24.192;2023-06-22T12:35:56;95779.94;;;35.89;24.25
61961;BME280;47923;42.506;24.192;2023-06-22T12:38:21;95688.25;;;35.28;23.81
61961;BME280;47923;42.506;24.192;2023-06-22T12:40:47;95533.41;;;34.38;23.70
61961;BME280;47923;42.506;24.192;2023-06-22T12:43:15;95715.66;;;35.68;23.31
61961;BME280;47923;42.506;24.192;2023-06-22T12:45:40;95448.16;;;33.83;23.39
61961;BME280;47923;42.506;24.192;2023-06-22T12:48:06;95775.56;;;36.46;23.24
61961;BME280;47923;42.506;24.192;2023-06-22T12:50:32;95773.69;;;36.54;23.55
61961;BME280;47923;42.506;24.192;2023-06-22T12:52:58;95478.06;;;34.55;23.92